Time;durP1;ratioP1;P1;durP2;ratioP2;P2;SDS_P1;SDS_P2;PMS_P1;PMS_P2;Temp;Humidity;BMP_temperature;BMP_pressure;BME280_temperature;BME280_humidity;BME280_pressure;Samples;Min_cycle;Max_cycle;Signal;HPM_P1;HPM_P2
2022/10/11 00:01:45;;;;;;;915.03;837.03;;;5.90;99.90;;;;;;4966824;29;20456;-85
2022/10/11 00:04:12;;;;;;;921.60;844.20;;;5.80;99.90;;;;;;4965825;29;20469;-84
2022/10/11 00:06:42;;;;;;;926.23;848.70;;;5.80;99.90;;;;;;4966619;28;20471;-85
2022/10/11 00:09:10;;;;;;;924.40;846.73;;;5.70;99.90;;;;;;4967192;29;20551;-84
2022/10/11 00:11:37;;;;;;;926.83;849.70;;;5.70;99.90;;;;;;4966614;29;20743;-85
2022/10/11 00:14:04;;;;;;;927.17;850.27;;;5.70;99.90;;;;;;4965926;29;20459;-85
2022/10/11 00:16:31;;;;;;;923.30;846.00;;;5.60;99.90;;;;;;4965804;28;20482;-84
2022/10/11 00:18:59;;;;;;;920.90;843.00;;;5.50;99.90;;;;;;4966132;29;20476;-85
2022/10/11 00:21:26;;;;;;;924.10;846.00;;;5.50;99.90;;;;;;4965980;29;20460;-85
2022/10/11 00:23:52;;;;;;;923.40;843.07;;;5.50;99.90;;;;;;4964512;29;20456;-85
2022/10/11 00:26:19;;;;;;;919.93;837.13;;;5.50;99.90;;;;;;4965647;28;20495;-84
2022/10/11 00:28:46;;;;;;;920.87;836.83;;;5.60;99.90;;;;;;4966374;29;20448;-85
2022/10/11 00:31:15;;;;;;;932.40;847.93;;;5.60;99.90;;;;;;4966095;29;20467;-84
2022/10/11 00:33:42;;;;;;;914.03;830.23;;;5.70;99.90;;;;;;4965701;29;20479;-85
2022/10/11 00:36:13;;;;;;;920.37;837.77;;;5.90;99.90;;;;;;4965081;28;20476;-85
2022/10/11 00:38:40;;;;;;;918.87;834.67;;;5.80;99.90;;;;;;4966056;29;20484;-85
2022/10/11 00:41:06;;;;;;;928.57;847.00;;;5.70;99.90;;;;;;4965947;29;20471;-85
2022/10/11 00:43:34;;;;;;;927.13;846.13;;;5.50;99.90;;;;;;4965657;29;20460;-85
2022/10/11 00:46:23;;;;;;;923.17;841.47;;;5.40;99.90;;;;;;4965388;28;20472;-85
2022/10/11 00:48:56;;;;;;;923.87;840.50;;;5.40;99.90;;;;;;4966527;29;20467;-85
2022/10/11 00:51:29;;;;;;;925.73;843.20;;;5.40;99.90;;;;;;4966368;29;20460;-85
2022/10/11 00:53:56;;;;;;;927.13;845.70;;;5.40;99.90;;;;;;4965449;29;20468;-85
2022/10/11 00:56:27;;;;;;;929.53;847.13;;;5.30;99.90;;;;;;4965636;28;20472;-85
2022/10/11 00:58:56;;;;;;;923.73;843.00;;;5.30;99.90;;;;;;4965818;29;20479;-85
2022/10/11 01:01:22;;;;;;;927.70;846.53;;;5.20;99.90;;;;;;4966262;29;20455;-85
2022/10/11 01:03:49;;;;;;;922.43;842.80;;;5.10;99.90;;;;;;4965638;29;20463;-84
2022/10/11 01:06:16;;;;;;;928.00;846.60;;;5.00;99.90;;;;;;4965420;28;20480;-85
2022/10/11 01:08:44;;;;;;;928.00;847.20;;;5.10;99.90;;;;;;4965316;29;20459;-84
2022/10/11 01:11:13;;;;;;;925.53;845.23;;;5.00;99.90;;;;;;4965199;29;20957;-85
2022/10/11 01:13:47;;;;;;;927.20;846.37;;;4.90;99.90;;;;;;4965848;29;20495;-84
2022/10/11 01:16:19;;;;;;;925.07;843.73;;;4.80;99.90;;;;;;4964446;28;20711;-85
2022/10/11 01:18:54;;;;;;;933.90;850.60;;;4.90;99.90;;;;;;4965230;29;20855;-85
2022/10/11 01:21:31;;;;;;;931.40;847.80;;;4.90;99.90;;;;;;4965735;29;20459;-85
2022/10/11 01:24:20;;;;;;;929.50;846.10;;;4.90;99.90;;;;;;4964489;29;20471;-85
2022/10/11 01:27:07;;;;;;;931.77;849.40;;;4.70;99.90;;;;;;4964090;28;20488;-85
2022/10/11 01:29:46;;;;;;;928.27;846.47;;;4.80;99.90;;;;;;4965293;29;20459;-85
2022/10/11 01:32:17;;;;;;;935.23;852.40;;;4.80;99.90;;;;;;4965411;29;20499;-85
2022/10/11 01:34:54;;;;;;;929.87;847.70;;;4.70;99.90;;;;;;4965167;29;20455;-85
2022/10/11 01:37:26;;;;;;;935.30;854.90;;;4.80;99.90;;;;;;4964927;28;20506;-85
2022/10/11 01:39:59;;;;;;;938.77;857.80;;;4.70;99.90;;;;;;4965507;29;20483;-85
2022/10/11 01:42:26;;;;;;;942.57;860.50;;;4.80;99.90;;;;;;4964732;29;20464;-85
2022/10/11 01:44:54;;;;;;;945.23;863.77;;;4.70;99.90;;;;;;4964584;29;20452;-85
2022/10/11 01:47:23;;;;;;;941.40;859.70;;;4.80;99.90;;;;;;4968405;28;20480;-85
2022/10/11 01:49:54;;;;;;;933.60;853.00;;;4.80;99.90;;;;;;4964873;29;20455;-85
2022/10/11 01:52:21;;;;;;;934.63;854.50;;;4.90;99.90;;;;;;4966227;29;20470;-85
2022/10/11 01:55:04;;;;;;;932.63;853.03;;;4.80;99.90;;;;;;4965988;29;20488;-85
2022/10/11 01:57:57;;;;;;;932.57;852.57;;;4.70;99.90;;;;;;4966715;28;20475;-85
2022/10/11 02:00:27;;;;;;;920.10;840.03;;;4.80;99.90;;;;;;4968271;29;20480;-85
2022/10/11 02:03:10;;;;;;;907.73;826.33;;;4.90;99.90;;;;;;4968335;29;20483;-85
2022/10/11 02:05:47;;;;;;;902.17;820.00;;;4.90;99.90;;;;;;4967746;28;20502;-85
2022/10/11 02:08:22;;;;;;;898.23;817.20;;;5.00;99.90;;;;;;4967670;29;20455;-85
2022/10/11 02:10:54;;;;;;;906.63;822.90;;;5.00;99.90;;;;;;4968582;29;20460;-85
2022/10/11 02:13:25;;;;;;;916.47;831.07;;;5.10;99.90;;;;;;4969180;29;20465;-85
2022/10/11 02:15:53;;;;;;;918.77;834.70;;;5.10;99.90;;;;;;4967647;28;20479;-86
2022/10/11 02:18:26;;;;;;;923.07;838.60;;;5.00;99.90;;;;;;4968391;29;20460;-85
2022/10/11 02:20:55;;;;;;;924.03;838.90;;;5.10;99.90;;;;;;4968045;29;20805;-86
2022/10/11 02:23:28;;;;;;;930.60;845.13;;;5.20;99.90;;;;;;4966658;29;20455;-86
2022/10/11 02:26:05;;;;;;;933.93;848.17;;;5.20;99.90;;;;;;4967863;28;20479;-85
2022/10/11 02:28:34;;;;;;;928.17;843.07;;;5.30;99.90;;;;;;4968988;29;20551;-85
2022/10/11 02:31:03;;;;;;;936.90;851.63;;;5.30;99.90;;;;;;4968348;29;20829;-85
2022/10/11 02:33:36;;;;;;;933.23;847.70;;;5.30;99.90;;;;;;4968059;29;20464;-85
2022/10/11 02:36:08;;;;;;;933.40;847.70;;;5.30;99.90;;;;;;4967015;28;20471;-86
2022/10/11 02:38:39;;;;;;;930.13;845.50;;;5.30;99.90;;;;;;4968484;29;20475;-85
2022/10/11 02:41:11;;;;;;;932.47;848.43;;;5.30;99.90;;;;;;4967936;29;20460;-86
2022/10/11 02:43:42;;;;;;;927.67;843.90;;;5.20;99.90;;;;;;4967444;29;20462;-85
2022/10/11 02:46:10;;;;;;;930.47;846.43;;;5.10;99.90;;;;;;4966888;28;20476;-86
2022/10/11 02:48:38;;;;;;;940.70;856.10;;;5.00;99.90;;;;;;4967175;29;20590;-85
2022/10/11 02:51:05;;;;;;;932.50;848.00;;;4.90;99.90;;;;;;4967718;29;20448;-85
2022/10/11 02:53:33;;;;;;;935.03;850.10;;;4.90;99.90;;;;;;4967796;29;20464;-84
2022/10/11 02:56:00;;;;;;;937.33;853.20;;;4.80;99.90;;;;;;4966771;28;20480;-86
2022/10/11 02:58:29;;;;;;;934.20;851.03;;;4.70;99.90;;;;;;4966906;29;20463;-85
2022/10/11 03:00:55;;;;;;;934.83;851.13;;;4.70;99.90;;;;;;4967623;29;20944;-85
2022/10/11 03:03:22;;;;;;;933.73;847.87;;;4.60;99.90;;;;;;4967972;29;20451;-85
2022/10/11 03:05:50;;;;;;;943.47;858.07;;;4.70;99.90;;;;;;4966112;28;20467;-85
2022/10/11 03:08:17;;;;;;;931.40;846.60;;;4.60;99.90;;;;;;4965905;28;20456;-85
2022/10/11 03:10:44;;;;;;;934.60;850.60;;;4.50;99.90;;;;;;4967310;29;20455;-86
2022/10/11 03:13:11;;;;;;;935.17;852.03;;;4.40;99.90;;;;;;4967911;29;20961;-85
2022/10/11 03:15:37;;;;;;;933.07;848.97;;;4.30;99.90;;;;;;4966931;28;20463;-85
2022/10/11 03:18:04;;;;;;;926.27;842.27;;;4.30;99.90;;;;;;4966598;29;20463;-85
2022/10/11 03:20:31;;;;;;;934.90;851.10;;;4.30;99.90;;;;;;4966388;29;20484;-85
2022/10/11 03:22:59;;;;;;;922.80;839.00;;;4.20;99.90;;;;;;4965374;29;20467;-86
2022/10/11 03:25:25;;;;;;;934.30;851.53;;;4.40;99.90;;;;;;4965592;29;20459;-85
2022/10/11 03:27:52;;;;;;;926.30;843.00;;;4.20;99.90;;;;;;4966309;28;20479;-85
2022/10/11 03:30:19;;;;;;;925.90;843.30;;;4.20;99.90;;;;;;4966822;29;20458;-85
2022/10/11 03:32:46;;;;;;;923.13;839.33;;;4.30;99.90;;;;;;4965737;29;20488;-85
2022/10/11 03:35:13;;;;;;;918.53;835.30;;;4.20;99.90;;;;;;4964053;29;20464;-85
2022/10/11 03:37:40;;;;;;;919.90;836.80;;;4.20;99.90;;;;;;4964634;28;20534;-85
2022/10/11 03:40:09;;;;;;;922.63;840.07;;;4.20;99.90;;;;;;4964971;29;20486;-85
2022/10/11 03:42:36;;;;;;;924.17;840.17;;;4.30;99.90;;;;;;4966170;29;20536;-85
2022/10/11 03:45:06;;;;;;;923.70;839.00;;;4.30;99.90;;;;;;4964326;29;21024;-84
2022/10/11 03:47:33;;;;;;;927.70;841.40;;;4.20;99.90;;;;;;4964427;28;20475;-85
2022/10/11 03:50:00;;;;;;;925.00;838.47;;;4.20;99.90;;;;;;4964156;29;20452;-85
2022/10/11 03:52:27;;;;;;;929.47;843.00;;;4.40;99.90;;;;;;4964613;29;20447;-85
2022/10/11 03:54:54;;;;;;;929.17;843.47;;;4.50;99.90;;;;;;4963256;29;20456;-85
2022/10/11 03:57:22;;;;;;;931.20;844.80;;;4.50;99.90;;;;;;4965012;28;20480;-85
2022/10/11 03:59:49;;;;;;;923.30;838.73;;;4.50;99.90;;;;;;4964173;29;20479;-85
2022/10/11 04:02:16;;;;;;;916.13;832.33;;;4.40;99.90;;;;;;4963887;29;20467;-85
2022/10/11 04:04:42;;;;;;;917.63;831.10;;;4.30;99.90;;;;;;4964009;29;20459;-85
2022/10/11 04:07:09;;;;;;;912.13;826.70;;;4.30;99.90;;;;;;4963366;28;20476;-85
2022/10/11 04:09:36;;;;;;;916.00;829.63;;;4.30;99.90;;;;;;4964290;29;20495;-85
2022/10/11 04:12:03;;;;;;;918.03;832.60;;;4.10;99.90;;;;;;4964040;29;20462;-85
2022/10/11 04:14:32;;;;;;;924.77;838.97;;;4.10;99.90;;;;;;4962721;29;20474;-85
2022/10/11 04:16:58;;;;;;;927.80;841.60;;;4.00;99.90;;;;;;4963528;28;20480;-85
2022/10/11 04:19:25;;;;;;;924.67;837.20;;;4.00;99.90;;;;;;4963045;28;20480;-85
2022/10/11 04:21:52;;;;;;;918.43;830.37;;;4.10;99.90;;;;;;4963620;29;20467;-85
2022/10/11 04:24:19;;;;;;;922.00;835.37;;;4.10;99.90;;;;;;4961996;29;20463;-84
2022/10/11 04:26:45;;;;;;;920.27;834.03;;;4.10;99.90;;;;;;4962625;28;20483;-85
2022/10/11 04:29:12;;;;;;;917.93;832.17;;;4.10;99.90;;;;;;4963293;29;20459;-85
2022/10/11 04:31:40;;;;;;;922.87;836.30;;;4.10;99.90;;;;;;4963561;29;20456;-86
2022/10/11 04:34:07;;;;;;;913.37;827.07;;;4.10;99.90;;;;;;4963285;29;20996;-85
2022/10/11 04:36:34;;;;;;;912.07;826.40;;;4.10;99.90;;;;;;4962324;28;20483;-85
2022/10/11 04:39:01;;;;;;;917.20;830.20;;;4.00;99.90;;;;;;4963665;29;20492;-85
2022/10/11 04:41:28;;;;;;;912.20;827.40;;;4.00;99.90;;;;;;4963028;29;20456;-85
2022/10/11 04:43:54;;;;;;;920.93;835.03;;;3.90;99.90;;;;;;4963981;28;20460;-85
2022/10/11 04:46:21;;;;;;;910.70;824.43;;;3.90;99.90;;;;;;4962899;28;20480;-85
2022/10/11 04:48:49;;;;;;;923.23;837.43;;;3.80;99.90;;;;;;4962381;29;20456;-84
2022/10/11 04:51:16;;;;;;;923.60;837.40;;;4.00;99.90;;;;;;4963917;29;20491;-84
2022/10/11 04:53:43;;;;;;;917.30;833.03;;;4.00;99.90;;;;;;4963107;29;20475;-85
2022/10/11 04:56:10;;;;;;;920.07;834.30;;;4.00;99.90;;;;;;4962063;28;20476;-85
2022/10/11 04:58:39;;;;;;;906.50;822.07;;;3.90;99.90;;;;;;4962541;29;20452;-85
2022/10/11 05:01:06;;;;;;;912.33;826.93;;;3.90;99.90;;;;;;4963669;29;20475;-86
2022/10/11 05:03:33;;;;;;;929.30;842.70;;;4.10;99.90;;;;;;4963602;29;20456;-85
2022/10/11 05:06:01;;;;;;;916.00;831.17;;;4.10;99.90;;;;;;4962070;28;20471;-85
2022/10/11 05:08:28;;;;;;;925.27;839.37;;;4.10;99.90;;;;;;4963347;29;20452;-85
2022/10/11 05:10:56;;;;;;;924.00;839.57;;;4.10;99.90;;;;;;4963576;29;20460;-86
2022/10/11 05:13:23;;;;;;;911.70;827.07;;;3.90;99.90;;;;;;4963501;28;20455;-85
2022/10/11 05:15:50;;;;;;;927.13;842.27;;;3.80;99.90;;;;;;4962847;28;20463;-85
2022/10/11 05:18:17;;;;;;;928.03;841.53;;;3.70;99.90;;;;;;4963519;28;20491;-85
2022/10/11 05:20:44;;;;;;;925.53;840.00;;;3.60;99.90;;;;;;4962600;29;20472;-85
2022/10/11 05:23:13;;;;;;;924.47;839.53;;;3.50;99.90;;;;;;4960076;29;20448;-85
2022/10/11 05:25:41;;;;;;;916.43;831.90;;;3.50;99.90;;;;;;4963181;28;20459;-84
2022/10/11 05:28:07;;;;;;;922.80;838.10;;;3.40;99.90;;;;;;4962102;29;20455;-85
2022/10/11 05:30:34;;;;;;;927.23;842.40;;;3.30;99.90;;;;;;4961413;28;20455;-85
2022/10/11 05:33:01;;;;;;;923.63;840.10;;;3.30;99.90;;;;;;4962947;29;20463;-84
2022/10/11 05:35:28;;;;;;;920.63;837.40;;;3.20;99.90;;;;;;4963713;29;20459;-84
2022/10/11 05:37:54;;;;;;;921.67;837.40;;;3.10;99.90;;;;;;4964972;28;21007;-84
2022/10/11 05:40:22;;;;;;;924.33;838.87;;;3.00;99.90;;;;;;4964535;29;20490;-85
2022/10/11 05:42:49;;;;;;;924.43;839.43;;;3.20;99.90;;;;;;4966364;29;20513;-85
2022/10/11 05:45:16;;;;;;;920.73;836.43;;;3.30;99.90;;;;;;4964037;29;20451;-84
2022/10/11 05:47:42;;;;;;;922.67;837.77;;;3.20;99.90;;;;;;4961459;28;20479;-85
2022/10/11 05:50:10;;;;;;;910.40;826.87;;;3.20;99.90;;;;;;4964311;29;20491;-84
2022/10/11 05:52:36;;;;;;;915.33;831.70;;;3.30;99.90;;;;;;4963747;29;20469;-84
2022/10/11 05:55:03;;;;;;;908.60;826.10;;;3.20;99.90;;;;;;4962168;29;20456;-85
2022/10/11 05:57:31;;;;;;;907.43;822.93;;;3.20;99.90;;;;;;4966026;28;20499;-84
2022/10/11 05:59:58;;;;;;;917.47;832.80;;;3.30;99.90;;;;;;4963658;29;20456;-84
2022/10/11 06:02:25;;;;;;;910.73;826.40;;;3.30;99.90;;;;;;4962657;29;20470;-84
2022/10/11 06:04:51;;;;;;;919.07;834.93;;;3.30;99.90;;;;;;4965118;29;20835;-84
2022/10/11 06:07:18;;;;;;;922.50;838.07;;;3.20;99.90;;;;;;4965164;28;20487;-85
2022/10/11 06:09:45;;;;;;;923.57;839.50;;;3.20;99.90;;;;;;4962291;29;20475;-84
2022/10/11 06:12:11;;;;;;;914.77;831.00;;;3.20;99.90;;;;;;4964628;29;20463;-84
2022/10/11 06:14:39;;;;;;;913.03;828.83;;;3.20;99.90;;;;;;4963651;29;20459;-85
2022/10/11 06:17:06;;;;;;;916.40;832.23;;;3.30;99.90;;;;;;4960005;28;20495;-85
2022/10/11 06:19:33;;;;;;;910.00;826.80;;;3.20;99.90;;;;;;4965709;28;20478;-85
2022/10/11 06:22:19;;;;;;;912.20;828.20;;;3.30;99.90;;;;;;4971027;29;20440;-85
2022/10/11 06:24:45;;;;;;;904.20;819.60;;;3.40;99.90;;;;;;4966152;28;20442;-84
2022/10/11 06:27:13;;;;;;;893.57;810.97;;;3.40;99.90;;;;;;4971978;28;20491;-83
2022/10/11 06:29:41;;;;;;;906.63;822.13;;;3.50;99.90;;;;;;4970960;28;20888;-84
2022/10/11 06:32:08;;;;;;;896.23;812.33;;;3.60;99.90;;;;;;4965930;29;20882;-85
2022/10/11 06:34:34;;;;;;;889.07;805.27;;;3.60;99.90;;;;;;4962652;29;20486;-85
2022/10/11 06:37:01;;;;;;;896.17;811.40;;;3.70;99.90;;;;;;4964184;28;20490;-84
2022/10/11 06:39:28;;;;;;;893.10;808.43;;;3.80;99.90;;;;;;4963464;28;20452;-85
2022/10/11 06:41:55;;;;;;;903.53;817.97;;;3.90;99.90;;;;;;4963541;28;20456;-83
2022/10/11 06:44:21;;;;;;;908.60;823.67;;;4.00;99.90;;;;;;4962705;28;20459;-85
2022/10/11 06:46:49;;;;;;;898.23;812.53;;;4.20;99.90;;;;;;4963394;29;20850;-85
2022/10/11 06:49:16;;;;;;;901.73;817.73;;;4.30;99.90;;;;;;4963378;28;20460;-85
2022/10/11 06:51:43;;;;;;;902.57;817.03;;;4.40;99.90;;;;;;4965259;28;20490;-83
2022/10/11 06:54:10;;;;;;;898.63;813.97;;;4.40;99.90;;;;;;4962574;29;20474;-84
2022/10/11 06:56:36;;;;;;;890.60;806.07;;;4.60;99.90;;;;;;4963124;29;20491;-85
2022/10/11 06:59:03;;;;;;;886.07;801.67;;;4.80;99.90;;;;;;4963975;28;20463;-85
2022/10/11 07:01:31;;;;;;;895.67;809.93;;;4.80;99.90;;;;;;4963355;29;20464;-85
2022/10/11 07:04:00;;;;;;;892.03;806.43;;;4.90;99.90;;;;;;4963633;28;20832;-85
2022/10/11 07:06:28;;;;;;;894.77;809.13;;;5.00;99.90;;;;;;4961820;28;20475;-85
2022/10/11 07:08:55;;;;;;;896.20;810.70;;;5.20;99.90;;;;;;4963530;28;20467;-85
2022/10/11 07:11:23;;;;;;;909.40;823.07;;;5.30;99.90;;;;;;4963360;29;20479;-85
2022/10/11 07:13:52;;;;;;;898.63;812.93;;;5.30;99.90;;;;;;4964499;29;20455;-85
2022/10/11 07:16:20;;;;;;;887.17;800.90;;;5.50;99.90;;;;;;4962638;28;20498;-85
2022/10/11 07:18:48;;;;;;;890.77;806.10;;;5.50;99.90;;;;;;4962866;28;20463;-85
2022/10/11 07:21:16;;;;;;;884.13;799.17;;;5.60;99.90;;;;;;4963002;28;20523;-85
2022/10/11 07:23:43;;;;;;;879.80;794.50;;;5.70;99.90;;;;;;4960926;29;20456;-84
2022/10/11 07:26:11;;;;;;;876.40;791.33;;;5.80;99.90;;;;;;4962357;28;20488;-84
2022/10/11 07:28:38;;;;;;;877.80;791.70;;;5.80;99.90;;;;;;4962995;28;20459;-85
2022/10/11 07:31:06;;;;;;;886.17;798.70;;;5.90;99.90;;;;;;4962750;28;20482;-85
2022/10/11 07:33:33;;;;;;;878.67;790.63;;;6.10;99.90;;;;;;4962593;28;20527;-85
2022/10/11 07:36:00;;;;;;;866.17;778.57;;;6.30;99.90;;;;;;4962083;28;20480;-85
2022/10/11 07:38:28;;;;;;;875.63;787.80;;;6.40;99.90;;;;;;4963570;29;20460;-85
2022/10/11 07:40:55;;;;;;;872.23;784.90;;;6.70;99.90;;;;;;4962551;28;20495;-85
2022/10/11 07:43:22;;;;;;;872.67;786.43;;;6.80;99.90;;;;;;4963226;28;20467;-85
2022/10/11 07:45:53;;;;;;;856.30;770.50;;;6.90;99.90;;;;;;4962386;29;20452;-85
2022/10/11 07:48:20;;;;;;;859.13;772.03;;;7.10;99.90;;;;;;4964421;28;20895;-85
2022/10/11 07:50:46;;;;;;;864.73;778.10;;;7.30;99.90;;;;;;4963626;29;20475;-85
2022/10/11 07:53:13;;;;;;;859.77;772.00;;;7.60;99.90;;;;;;4964117;28;20456;-85
2022/10/11 07:55:41;;;;;;;852.97;766.17;;;7.80;99.90;;;;;;4962215;28;20456;-85
2022/10/11 07:58:08;;;;;;;850.93;764.23;;;8.00;99.90;;;;;;4963583;28;20456;-85
2022/10/11 08:00:35;;;;;;;849.57;763.03;;;8.10;99.90;;;;;;4962183;29;20459;-85
2022/10/11 08:03:03;;;;;;;846.97;761.50;;;8.40;99.90;;;;;;4963881;29;20464;-85
2022/10/11 08:05:30;;;;;;;833.27;747.53;;;8.50;99.90;;;;;;4963116;29;20487;-85
2022/10/11 08:07:58;;;;;;;846.97;763.20;;;8.70;99.90;;;;;;4964354;28;20472;-85
2022/10/11 08:10:24;;;;;;;853.83;771.43;;;8.80;99.90;;;;;;4965830;28;20562;-85
2022/10/11 08:12:53;;;;;;;848.50;764.80;;;8.90;99.90;;;;;;4965153;29;20519;-86
2022/10/11 08:15:20;;;;;;;840.53;762.00;;;9.20;99.90;;;;;;4964187;28;20463;-85
2022/10/11 08:17:47;;;;;;;833.93;758.73;;;9.40;99.90;;;;;;4964644;28;20515;-85
2022/10/11 08:20:14;;;;;;;827.87;752.83;;;9.50;99.90;;;;;;4965214;29;20464;-86
2022/10/11 08:22:41;;;;;;;821.07;751.67;;;9.90;99.90;;;;;;4964602;28;20945;-85
2022/10/11 08:25:08;;;;;;;806.90;743.70;;;10.00;99.90;;;;;;4964714;28;20460;-85
2022/10/11 08:27:35;;;;;;;815.40;752.43;;;10.30;99.90;;;;;;4966245;28;20488;-85
2022/10/11 08:30:03;;;;;;;806.53;747.00;;;10.60;99.90;;;;;;4966499;29;20462;-86
2022/10/11 08:32:30;;;;;;;792.53;736.47;;;10.90;99.90;;;;;;4965919;28;20484;-86
2022/10/11 08:34:57;;;;;;;688.33;648.20;;;11.10;99.90;;;;;;4965891;28;20463;-86
2022/10/11 08:37:23;;;;;;;479.67;455.87;;;11.10;99.90;;;;;;4965863;29;21009;-85
2022/10/11 08:39:50;;;;;;;427.53;407.43;;;11.00;99.90;;;;;;4966577;29;20565;-85
2022/10/11 08:42:28;;;;;;;434.97;414.47;;;11.20;99.90;;;;;;4966370;29;20452;-86
2022/10/11 08:44:59;;;;;;;229.93;219.40;;;11.30;99.90;;;;;;4965196;28;20464;-86
2022/10/11 08:47:31;;;;;;;118.57;112.17;;;11.30;99.90;;;;;;4966231;29;20484;-86
2022/10/11 08:49:59;;;;;;;75.10;70.43;;;11.30;99.90;;;;;;4965537;28;20467;-86
2022/10/11 08:52:30;;;;;;;37.60;34.33;;;11.50;99.90;;;;;;4966240;29;20488;-85
2022/10/11 08:55:02;;;;;;;41.30;37.77;;;11.60;99.90;;;;;;4964579;29;20459;-86
2022/10/11 08:57:31;;;;;;;26.17;22.00;;;11.90;99.90;;;;;;4966427;28;20495;-85
2022/10/11 09:00:03;;;;;;;20.40;13.77;;;11.90;99.90;;;;;;4966864;28;20459;-86
2022/10/11 09:02:40;;;;;;;23.37;14.47;;;11.90;99.90;;;;;;4966549;29;20484;-86
2022/10/11 09:05:13;;;;;;;20.30;13.43;;;12.00;99.90;;;;;;4965417;28;20459;-86
2022/10/11 09:07:49;;;;;;;21.30;12.50;;;12.30;99.90;;;;;;4970480;28;20483;-85
2022/10/11 09:10:57;;;;;;;29.60;15.90;;;12.20;99.90;;;;;;4970485;28;20455;-86
2022/10/11 09:14:00;;;;;;;23.53;15.03;;;12.50;99.90;;;;;;4970235;28;20451;-86
2022/10/11 09:16:41;;;;;;;24.33;15.33;;;12.40;99.90;;;;;;4969621;29;20480;-86
2022/10/11 09:19:31;;;;;;;29.60;15.27;;;12.30;99.90;;;;;;4971052;29;20460;-85
2022/10/11 09:22:07;;;;;;;28.03;14.77;;;12.10;99.90;;;;;;4971079;28;20462;-85
2022/10/11 09:24:57;;;;;;;27.67;16.60;;;12.20;99.90;;;;;;4967947;28;20451;-86
2022/10/11 09:27:30;;;;;;;31.87;16.33;;;12.50;99.90;;;;;;4969345;28;20476;-85
2022/10/11 09:30:02;;;;;;;37.43;17.10;;;12.50;99.90;;;;;;4968635;29;20455;-85
2022/10/11 09:32:31;;;;;;;28.90;17.20;;;12.30;99.90;;;;;;4968167;29;20484;-86
2022/10/11 09:35:10;;;;;;;29.27;16.63;;;12.20;99.90;;;;;;4946588;29;20998;-86
2022/10/11 09:37:46;;;;;;;31.00;17.70;;;12.10;99.90;;;;;;4947009;29;20480;-86
2022/10/11 09:40:28;;;;;;;31.13;18.07;;;12.40;99.90;;;;;;4947782;29;20979;-86
2022/10/11 09:42:54;;;;;;;33.00;17.33;;;12.80;99.90;;;;;;4948512;29;20536;-86
2022/10/11 09:45:22;;;;;;;33.87;16.40;;;13.00;99.90;;;;;;4950091;29;20444;-86
2022/10/11 09:47:52;;;;;;;30.50;17.73;;;13.10;99.90;;;;;;4943594;29;20859;-86
2022/10/11 09:50:24;;;;;;;30.87;18.77;;;12.80;99.90;;;;;;4941926;29;20456;-86
2022/10/11 09:52:53;;;;;;;37.37;21.20;;;12.60;99.90;;;;;;4943786;29;20484;-86
2022/10/11 09:55:31;;;;;;;37.20;21.37;;;12.50;99.90;;;;;;4944850;29;20508;-86
2022/10/11 09:57:58;;;;;;;38.83;19.80;;;12.40;99.90;;;;;;4944735;29;20484;-86
2022/10/11 10:00:26;;;;;;;43.37;24.27;;;12.40;99.90;;;;;;4944847;29;20517;-86
2022/10/11 10:02:55;;;;;;;40.00;22.70;;;12.50;99.90;;;;;;4945872;29;20457;-85
2022/10/11 10:05:25;;;;;;;54.60;23.77;;;12.70;99.90;;;;;;4944913;29;20467;-86
2022/10/11 10:08:07;;;;;;;42.87;23.50;;;13.00;99.90;;;;;;4944673;29;20871;-86
2022/10/11 10:10:38;;;;;;;37.80;22.20;;;13.30;99.90;;;;;;4944983;29;20552;-86
2022/10/11 10:13:06;;;;;;;43.67;23.00;;;13.50;99.10;;;;;;4945584;29;20459;-85
2022/10/11 10:15:35;;;;;;;50.60;26.00;;;13.60;98.10;;;;;;4943934;29;20563;-86
2022/10/11 10:18:04;;;;;;;55.33;26.57;;;13.10;97.40;;;;;;4944464;29;20466;-86
2022/10/11 10:20:35;;;;;;;57.33;26.87;;;13.20;98.10;;;;;;4945327;29;20464;-85
2022/10/11 10:23:09;;;;;;;48.70;25.43;;;13.60;99.10;;;;;;4944630;29;20468;-85
2022/10/11 10:25:38;;;;;;;43.70;24.10;;;13.70;95.70;;;;;;4945135;29;20468;-86
2022/10/11 10:28:18;;;;;;;56.80;27.80;;;13.70;94.80;;;;;;4945490;29;20460;-86
2022/10/11 10:30:53;;;;;;;51.33;27.80;;;14.00;96.40;;;;;;4958359;28;20455;-86
2022/10/11 10:33:21;;;;;;;44.30;25.67;;;15.00;92.40;;;;;;4963183;28;20891;-85
2022/10/11 10:35:55;;;;;;;50.40;25.77;;;15.50;90.70;;;;;;4961922;29;20464;-85
2022/10/11 10:38:26;;;;;;;49.27;24.80;;;15.90;88.60;;;;;;4964005;29;20491;-86
2022/10/11 10:40:56;;;;;;;57.07;27.53;;;16.60;86.50;;;;;;4963059;29;20459;-84
2022/10/11 10:43:26;;;;;;;64.33;30.37;;;15.90;85.20;;;;;;4964014;28;20459;-83
2022/10/11 10:46:13;;;;;;;51.23;28.23;;;15.80;84.30;;;;;;4962355;29;20769;-83
2022/10/11 10:48:49;;;;;;;52.03;27.40;;;16.00;82.40;;;;;;4964133;28;20462;-83
2022/10/11 10:51:27;;;;;;;42.10;24.87;;;16.60;83.00;;;;;;4963902;28;20476;-83
2022/10/11 10:54:00;;;;;;;53.67;25.60;;;16.90;78.40;;;;;;4963550;28;20461;-83
2022/10/11 10:56:33;;;;;;;45.53;23.93;;;16.90;78.00;;;;;;4964467;29;20505;-82
2022/10/11 10:59:17;;;;;;;43.70;24.07;;;17.30;72.90;;;;;;4965280;29;20467;-82
2022/10/11 11:01:53;;;;;;;46.00;21.20;;;18.10;68.40;;;;;;4965175;28;20489;-85
2022/10/11 11:04:28;;;;;;;39.40;23.83;;;18.60;65.70;;;;;;4965260;28;20459;-83
2022/10/11 11:07:00;;;;;;;39.20;22.50;;;19.20;62.70;;;;;;4963720;28;20566;-83
2022/10/11 11:09:36;;;;;;;42.93;23.10;;;19.20;61.10;;;;;;4964811;29;20832;-83
2022/10/11 11:12:15;;;;;;;42.77;20.97;;;19.20;61.10;;;;;;4964877;28;20450;-82
2022/10/11 11:14:55;;;;;;;45.00;23.53;;;19.30;59.10;;;;;;4964546;28;20457;-81
2022/10/11 11:17:31;;;;;;;35.60;21.73;;;20.00;57.70;;;;;;4964524;28;20469;-82
2022/10/11 11:20:08;;;;;;;43.77;21.93;;;20.50;54.50;;;;;;4963192;28;20469;-82
2022/10/11 11:22:45;;;;;;;33.67;21.47;;;20.80;51.10;;;;;;4965023;29;20891;-83
2022/10/11 11:25:25;;;;;;;34.60;18.70;;;21.30;46.10;;;;;;4964064;28;20459;-83
2022/10/11 11:28:00;;;;;;;33.93;19.90;;;21.60;45.80;;;;;;4956837;28;20546;-84
2022/10/11 11:30:35;;;;;;;33.17;20.87;;;21.70;40.10;;;;;;4955954;28;20459;-84
2022/10/11 11:33:08;;;;;;;33.50;19.60;;;21.40;42.70;;;;;;4957083;29;20443;-84
2022/10/11 11:35:38;;;;;;;38.70;19.13;;;21.20;43.90;;;;;;4956294;29;20462;-86
2022/10/11 11:38:14;;;;;;;32.70;17.50;;;21.60;39.20;;;;;;4955638;28;20459;-84
2022/10/11 11:40:44;;;;;;;31.03;19.03;;;21.60;36.80;;;;;;4955574;29;20974;-83
2022/10/11 11:43:21;;;;;;;28.77;15.60;;;21.60;36.80;;;;;;4955773;29;20475;-84
2022/10/11 11:45:53;;;;;;;24.97;14.80;;;22.20;36.20;;;;;;4955734;29;20921;-83
2022/10/11 11:48:23;;;;;;;26.53;13.03;;;22.00;35.10;;;;;;4956835;28;20514;-84
2022/10/11 11:51:05;;;;;;;27.90;12.03;;;22.00;32.50;;;;;;5090514;27;20524;-87
2022/10/11 11:53:47;;;;;;;23.23;9.67;;;21.90;29.30;;;;;;5089944;28;20453;-84
2022/10/11 11:56:25;;;;;;;23.57;11.50;;;21.10;29.60;;;;;;5090064;28;20465;-85
2022/10/11 11:59:02;;;;;;;26.73;12.80;;;22.10;30.70;;;;;;5089984;28;20456;-86
2022/10/11 12:01:36;;;;;;;20.10;10.27;;;22.30;28.70;;;;;;5090140;28;20456;-86
2022/10/11 12:04:07;;;;;;;25.10;10.27;;;22.20;24.70;;;;;;5090685;28;20594;-86
2022/10/11 12:06:37;;;;;;;25.97;9.73;;;22.90;26.00;;;;;;5088929;28;20476;-85
2022/10/11 12:09:08;;;;;;;16.80;8.33;;;22.80;23.80;;;;;;5090492;28;20476;-83
2022/10/11 12:11:48;;;;;;;17.93;7.23;;;22.20;21.30;;;;;;5090314;28;20453;-84
2022/10/11 12:14:29;;;;;;;18.20;7.27;;;22.80;21.60;;;;;;5089180;28;20453;-83
2022/10/11 12:17:19;;;;;;;18.90;7.20;;;22.50;19.90;;;;;;5089243;28;21001;-88
2022/10/11 12:20:09;;;;;;;14.57;6.47;;;23.00;20.70;;;;;;5089389;28;20844;-87
2022/10/11 12:22:58;;;;;;;15.87;5.47;;;22.70;16.20;;;;;;5089343;28;20802;-88
2022/10/11 12:25:39;;;;;;;14.83;4.73;;;23.60;14.80;;;;;;5089045;28;20456;-85
2022/10/11 12:28:47;;;;;;;18.63;5.70;;;24.00;13.00;;;;;;5089353;28;20445;-85
2022/10/11 12:31:20;;;;;;;13.30;5.20;;;23.70;11.70;;;;;;5089026;28;20453;-85
2022/10/11 12:33:54;;;;;;;19.47;6.40;;;22.10;13.40;;;;;;5088358;28;20870;-85
2022/10/11 12:36:36;;;;;;;12.77;3.93;;;21.70;17.90;;;;;;5086978;28;20477;-85
2022/10/11 12:39:51;;;;;;;18.03;5.60;;;22.50;12.30;;;;;;5088592;28;20445;-85